createdAt,value
2022-10-18T00:00:06.456Z,17.35
2022-10-18T00:02:33.476Z,18.05
2022-10-18T00:05:00.303Z,17.75
2022-10-18T00:07:26.987Z,23.10
2022-10-18T00:09:53.732Z,12.95
2022-10-18T00:12:20.489Z,20.80
2022-10-18T00:14:50.895Z,10.30
2022-10-18T00:17:17.967Z,13.05
2022-10-18T00:19:45.173Z,8.07
2022-10-18T00:22:11.857Z,9.60
2022-10-18T00:24:38.561Z,17.13
2022-10-18T00:27:05.344Z,15.57
2022-10-18T00:29:32.068Z,15.98
2022-10-18T00:31:58.889Z,11.98
2022-10-18T00:34:25.655Z,13.88
2022-10-18T00:36:52.376Z,18.55
2022-10-18T00:39:20.831Z,16.80
2022-10-18T00:41:49.068Z,25.23
2022-10-18T00:44:15.745Z,20.42
2022-10-18T00:46:45.197Z,17.63
2022-10-18T00:49:16.346Z,17.80
2022-10-18T00:51:46.927Z,19.42
2022-10-18T00:54:16.554Z,21.05
2022-10-18T00:56:45.042Z,16.45
2022-10-18T00:59:14.837Z,19.95
2022-10-18T01:01:41.779Z,18.15
2022-10-18T01:04:08.672Z,17.92
2022-10-18T01:06:52.067Z,19.02
2022-10-18T01:09:24.352Z,15.68
2022-10-18T01:11:54.218Z,12.88
2022-10-18T01:14:34.310Z,17.85
2022-10-18T01:17:07.732Z,14.63
2022-10-18T01:20:01.893Z,14.40
2022-10-18T01:22:44.268Z,15.88
2022-10-18T01:26:09.542Z,17.63
2022-10-18T01:28:52.623Z,13.45
2022-10-18T01:31:23.534Z,13.52
2022-10-18T01:33:58.742Z,15.55
2022-10-18T01:36:40.581Z,13.05
2022-10-18T01:39:11.580Z,16.58
2022-10-18T01:41:41.448Z,12.45
2022-10-18T01:44:12.953Z,12.50
2022-10-18T01:46:41.884Z,12.60
2022-10-18T01:49:08.920Z,15.07
2022-10-18T01:51:36.033Z,12.20
2022-10-18T01:54:03.226Z,12.68
2022-10-18T01:56:42.149Z,15.27
2022-10-18T01:59:15.100Z,10.83
2022-10-18T02:01:54.112Z,11.75
2022-10-18T02:04:30.377Z,11.50
2022-10-18T02:07:12.932Z,13.50
2022-10-18T02:09:46.886Z,12.43
2022-10-18T02:12:15.768Z,16.30
2022-10-18T02:14:45.684Z,11.38
2022-10-18T02:19:44.611Z,11.80
2022-10-18T02:22:12.904Z,13.82
2022-10-18T02:24:45.232Z,12.15
2022-10-18T02:27:12.965Z,11.70
2022-10-18T02:29:41.871Z,13.93
2022-10-18T02:32:19.754Z,19.87
2022-10-18T02:34:54.173Z,11.52
2022-10-18T02:37:21.182Z,12.10
2022-10-18T02:39:50.961Z,11.95
2022-10-18T02:42:17.710Z,13.98
2022-10-18T02:44:45.828Z,14.60
2022-10-18T02:47:12.941Z,18.25
2022-10-18T02:49:40.005Z,14.65
2022-10-18T02:52:07.395Z,17.20
2022-10-18T02:54:34.143Z,17.25
2022-10-18T02:57:00.922Z,16.33
2022-10-18T02:59:27.766Z,15.23
2022-10-18T03:01:54.619Z,15.50
2022-10-18T03:04:21.382Z,13.32
2022-10-18T03:06:48.227Z,15.68
2022-10-18T03:09:14.944Z,10.45
2022-10-18T03:11:41.768Z,13.30
2022-10-18T03:14:08.536Z,13.68
2022-10-18T03:16:35.244Z,12.32
2022-10-18T03:19:02.049Z,13.50
2022-10-18T03:21:28.820Z,14.00
2022-10-18T03:23:56.200Z,11.48
2022-10-18T03:26:22.904Z,12.85
2022-10-18T03:28:49.724Z,13.48
2022-10-18T03:31:16.644Z,19.83
2022-10-18T03:33:43.420Z,12.52
2022-10-18T03:36:10.396Z,12.75
2022-10-18T03:38:37.125Z,15.00
2022-10-18T03:41:04.055Z,11.35
2022-10-18T03:43:30.907Z,13.05
2022-10-18T03:45:57.664Z,14.98
2022-10-18T03:48:24.796Z,12.48
2022-10-18T03:50:52.093Z,13.93
2022-10-18T03:53:18.809Z,11.80
2022-10-18T03:55:50.125Z,13.70
2022-10-18T03:58:16.951Z,10.80
2022-10-18T04:00:43.737Z,12.00
2022-10-18T04:03:10.577Z,11.43
2022-10-18T04:05:37.484Z,13.02
2022-10-18T04:08:04.812Z,12.15
2022-10-18T04:10:31.516Z,11.68
2022-10-18T04:12:58.371Z,18.25
2022-10-18T04:15:25.080Z,11.60
2022-10-18T04:17:51.794Z,11.40
2022-10-18T04:20:18.581Z,13.35
2022-10-18T04:22:46.310Z,17.63
2022-10-18T04:25:12.993Z,11.20
2022-10-18T04:27:39.784Z,12.45
2022-10-18T04:30:07.047Z,11.23
2022-10-18T04:32:35.469Z,12.45
2022-10-18T04:35:03.301Z,11.80
2022-10-18T04:37:30.338Z,21.30
2022-10-18T04:39:57.405Z,18.42
2022-10-18T04:42:24.311Z,16.40
2022-10-18T04:44:51.330Z,13.30
2022-10-18T04:47:18.255Z,10.98
2022-10-18T04:49:45.088Z,12.07
2022-10-18T04:52:11.982Z,10.48
2022-10-18T04:54:38.817Z,12.38
2022-10-18T04:57:05.838Z,12.95
2022-10-18T04:59:32.658Z,13.57
2022-10-18T05:01:59.495Z,12.13
2022-10-18T05:04:26.339Z,10.95
2022-10-18T05:06:53.055Z,15.70
2022-10-18T05:09:22.341Z,10.15
2022-10-18T05:11:49.217Z,11.85
2022-10-18T05:14:16.140Z,16.92
2022-10-18T05:16:42.950Z,11.45
2022-10-18T05:19:10.266Z,15.07
2022-10-18T05:21:36.996Z,12.93
2022-10-18T05:24:04.023Z,15.57
2022-10-18T05:26:30.822Z,11.48
2022-10-18T05:28:57.673Z,11.40
2022-10-18T05:31:24.448Z,9.60
2022-10-18T05:33:51.239Z,12.98
2022-10-18T05:36:17.916Z,10.13
2022-10-18T05:38:47.976Z,12.32
2022-10-18T05:41:15.059Z,11.80
2022-10-18T05:43:41.747Z,14.30
2022-10-18T05:46:14.559Z,10.70
2022-10-18T05:48:44.253Z,13.52
2022-10-18T05:51:11.426Z,13.73
2022-10-18T05:53:38.426Z,12.38
2022-10-18T05:56:06.722Z,12.27
2022-10-18T05:58:33.999Z,11.90
2022-10-18T06:01:05.682Z,11.68
2022-10-18T06:03:33.345Z,12.68
2022-10-18T06:06:06.708Z,16.15
2022-10-18T06:08:34.328Z,11.57
2022-10-18T06:11:07.459Z,11.30
2022-10-18T06:13:34.471Z,11.80
2022-10-18T06:16:01.166Z,12.02
2022-10-18T06:18:28.175Z,14.57
2022-10-18T06:20:59.311Z,12.27
2022-10-18T06:23:29.287Z,10.95
2022-10-18T06:26:03.678Z,11.18
2022-10-18T06:28:30.979Z,12.05
2022-10-18T06:30:58.525Z,9.95
2022-10-18T06:33:26.827Z,10.27
2022-10-18T06:35:59.252Z,11.48
2022-10-18T06:38:26.798Z,13.85
2022-10-18T06:40:54.851Z,11.70
2022-10-18T06:43:21.907Z,13.35
2022-10-18T06:45:49.645Z,13.63
2022-10-18T06:50:58.356Z,13.15
2022-10-18T06:53:30.721Z,13.02
2022-10-18T06:56:01.859Z,15.13
2022-10-18T06:58:29.853Z,11.13
2022-10-18T07:00:57.383Z,13.30
2022-10-18T07:03:24.172Z,13.77
2022-10-18T07:05:51.225Z,10.77
2022-10-18T07:08:18.740Z,10.02
2022-10-18T07:10:53.269Z,11.13
2022-10-18T07:13:32.096Z,12.30
2022-10-18T07:16:17.398Z,14.02
2022-10-18T07:18:50.510Z,12.35
2022-10-18T07:21:20.287Z,15.95
2022-10-18T07:23:47.498Z,11.95
2022-10-18T07:26:21.707Z,11.35
2022-10-18T07:28:55.432Z,12.68
2022-10-18T07:31:23.776Z,13.07
2022-10-18T07:33:50.822Z,22.95
2022-10-18T07:36:18.371Z,14.30
2022-10-18T07:38:45.331Z,14.20
2022-10-18T07:41:13.256Z,10.48
2022-10-18T07:43:51.703Z,21.73
2022-10-18T07:46:20.220Z,13.65
2022-10-18T07:48:46.984Z,14.82
2022-10-18T07:51:14.591Z,11.02
2022-10-18T07:53:41.314Z,11.88
2022-10-18T07:56:16.183Z,16.35
2022-10-18T07:58:47.808Z,12.32
2022-10-18T08:01:15.737Z,7.05
2022-10-18T08:03:43.766Z,5.30
2022-10-18T08:06:12.139Z,11.80
2022-10-18T08:08:40.034Z,10.05
2022-10-18T08:11:10.680Z,7.70
2022-10-18T08:13:37.521Z,9.45
2022-10-18T08:16:10.304Z,17.25
2022-10-18T08:18:37.658Z,12.52
2022-10-18T08:21:06.721Z,12.43
2022-10-18T08:23:34.364Z,13.48
2022-10-18T08:26:02.623Z,10.55
2022-10-18T08:28:29.791Z,9.95
2022-10-18T08:30:56.788Z,11.68
2022-10-18T08:33:23.982Z,11.02
2022-10-18T08:35:58.625Z,13.77
2022-10-18T08:38:25.676Z,14.40
2022-10-18T08:40:52.701Z,11.30
2022-10-18T08:43:28.792Z,6.78
2022-10-18T08:45:56.201Z,11.70
2022-10-18T08:48:31.307Z,10.85
2022-10-18T08:50:58.769Z,14.25
2022-10-18T08:53:39.229Z,2.38
2022-10-18T08:56:14.912Z,5.20
2022-10-18T08:58:46.656Z,13.48
2022-10-18T09:01:31.772Z,11.75
2022-10-18T09:04:20.332Z,14.13
2022-10-18T09:07:27.207Z,12.48
2022-10-18T09:10:05.440Z,12.00
2022-10-18T09:13:04.155Z,11.07
2022-10-18T09:15:45.064Z,9.73
2022-10-18T09:18:37.460Z,12.18
2022-10-18T09:21:42.060Z,12.10
2022-10-18T09:24:34.758Z,9.45
2022-10-18T09:27:15.225Z,3.90
2022-10-18T09:29:59.351Z,9.70
2022-10-18T09:32:55.590Z,8.52
2022-10-18T09:35:27.517Z,3.45
2022-10-18T09:38:03.218Z,10.77
2022-10-18T09:40:36.601Z,11.32
2022-10-18T09:43:12.107Z,9.50
2022-10-18T09:45:44.944Z,13.13
2022-10-18T09:48:28.124Z,10.40
2022-10-18T09:51:21.866Z,27.48
2022-10-18T09:53:57.452Z,12.25
2022-10-18T09:56:36.678Z,12.18
2022-10-18T09:59:15.925Z,11.68
2022-10-18T10:01:43.158Z,15.30
2022-10-18T10:04:09.855Z,14.65
2022-10-18T10:06:39.128Z,10.25
2022-10-18T10:09:17.040Z,12.63
2022-10-18T10:11:51.437Z,10.80
2022-10-18T10:14:26.099Z,9.95
2022-10-18T10:17:21.628Z,12.88
2022-10-18T10:20:04.064Z,13.20
2022-10-18T10:22:41.322Z,9.35
2022-10-18T10:25:21.417Z,10.68
2022-10-18T10:27:48.420Z,10.40
2022-10-18T10:30:30.410Z,6.53
2022-10-18T10:32:58.227Z,14.45
2022-10-18T10:35:53.944Z,12.23
2022-10-18T10:38:31.188Z,12.00
2022-10-18T10:40:59.192Z,10.35
2022-10-18T10:43:40.004Z,10.10
2022-10-18T10:46:09.073Z,11.35
2022-10-18T10:49:21.701Z,17.37
2022-10-18T10:51:45.225Z,16.75
2022-10-18T10:54:20.916Z,10.70
2022-10-18T10:56:58.882Z,13.65
2022-10-18T10:59:30.734Z,9.25
2022-10-18T11:02:17.890Z,14.30
2022-10-18T11:04:49.688Z,11.82
2022-10-18T11:07:38.248Z,11.63
2022-10-18T11:10:12.817Z,17.75
2022-10-18T11:12:43.812Z,10.23
2022-10-18T11:15:11.943Z,11.63
2022-10-18T11:18:04.919Z,11.70
2022-10-18T11:20:47.440Z,10.68
2022-10-18T11:23:16.205Z,14.75
2022-10-18T11:26:01.186Z,10.10
2022-10-18T11:28:37.142Z,17.98
2022-10-18T11:31:19.229Z,10.82
2022-10-18T11:34:16.590Z,10.30
2022-10-18T11:36:57.973Z,10.85
2022-10-18T11:40:16.208Z,9.15
2022-10-18T11:42:58.217Z,10.23
2022-10-18T11:45:28.113Z,9.05
2022-10-18T11:48:41.920Z,11.63
2022-10-18T11:51:34.390Z,10.45
2022-10-18T11:54:17.338Z,9.30
2022-10-18T11:56:50.272Z,9.85
2022-10-18T11:59:26.106Z,9.88
2022-10-18T12:02:20.679Z,10.25
2022-10-18T12:04:58.422Z,5.30
2022-10-18T12:07:50.004Z,6.03
2022-10-18T12:10:31.487Z,7.05
2022-10-18T12:13:14.638Z,3.97
2022-10-18T12:15:41.739Z,8.82
2022-10-18T12:18:15.422Z,9.52
2022-10-18T12:20:46.434Z,10.65
2022-10-18T12:23:30.648Z,9.48
2022-10-18T12:26:04.022Z,9.73
2022-10-18T12:28:33.537Z,8.32
2022-10-18T12:31:14.212Z,1.88
2022-10-18T12:33:45.932Z,9.35
2022-10-18T12:36:21.725Z,10.40
2022-10-18T12:38:54.209Z,8.57
2022-10-18T12:41:26.609Z,14.27
2022-10-18T12:44:04.633Z,11.63
2022-10-18T12:46:51.194Z,9.77
2022-10-18T12:49:27.783Z,11.38
2022-10-18T12:52:00.271Z,8.43
2022-10-18T12:54:31.670Z,11.25
2022-10-18T12:57:00.095Z,12.45
2022-10-18T12:59:26.948Z,9.85
2022-10-18T13:01:53.762Z,8.77
2022-10-18T13:04:29.662Z,9.13
2022-10-18T13:07:05.191Z,9.50
2022-10-18T13:10:02.938Z,9.70
2022-10-18T13:12:32.007Z,9.15
2022-10-18T13:15:34.147Z,12.60
2022-10-18T13:18:18.308Z,9.98
2022-10-18T13:20:57.690Z,9.27
2022-10-18T13:23:59.550Z,10.60
2022-10-18T13:26:38.564Z,9.63
2022-10-18T13:29:42.299Z,9.40
2022-10-18T13:32:29.222Z,17.80
2022-10-18T13:34:56.618Z,9.45
2022-10-18T13:37:25.784Z,12.55
2022-10-18T13:40:25.834Z,9.25
2022-10-18T13:42:52.592Z,13.52
2022-10-18T13:45:31.820Z,9.02
2022-10-18T13:48:29.606Z,9.45
2022-10-18T13:51:12.198Z,15.52
2022-10-18T13:54:02.279Z,10.43
2022-10-18T13:56:52.321Z,9.00
2022-10-18T13:59:41.018Z,12.07
2022-10-18T14:02:36.476Z,9.87
2022-10-18T14:05:24.955Z,10.57
2022-10-18T14:07:58.869Z,12.55
2022-10-18T14:10:57.491Z,9.68
2022-10-18T14:13:34.009Z,12.98
2022-10-18T14:16:10.905Z,12.98
2022-10-18T14:18:42.829Z,17.90
2022-10-18T14:21:27.399Z,27.67
2022-10-18T14:23:57.746Z,29.60
2022-10-18T14:26:24.521Z,29.58
2022-10-18T14:29:16.876Z,28.58
2022-10-18T14:31:53.511Z,26.88
2022-10-18T14:34:22.169Z,35.70
2022-10-18T14:36:49.770Z,38.35
2022-10-18T14:39:29.301Z,52.85
2022-10-18T14:41:58.374Z,39.70
2022-10-18T14:44:30.388Z,41.78
2022-10-18T14:47:16.699Z,43.65
2022-10-18T14:49:47.872Z,54.85
2022-10-18T14:52:18.512Z,40.60
2022-10-18T14:54:45.734Z,42.40
2022-10-18T14:57:19.917Z,40.58
2022-10-18T14:59:52.006Z,39.40
2022-10-18T15:02:39.298Z,39.45
2022-10-18T15:05:09.213Z,51.33
2022-10-18T15:10:05.573Z,37.95
2022-10-18T15:12:36.827Z,34.13
2022-10-18T15:15:31.461Z,37.38
2022-10-18T15:17:59.854Z,35.10
2022-10-18T15:20:31.711Z,33.30
2022-10-18T15:23:23.479Z,35.78
2022-10-18T15:25:52.272Z,32.05
2022-10-18T15:28:28.716Z,35.35
2022-10-18T15:30:58.368Z,32.20
2022-10-18T15:33:27.490Z,22.00
2022-10-18T15:35:55.026Z,32.05
2022-10-18T15:38:24.821Z,30.80
2022-10-18T15:40:51.789Z,33.33
2022-10-18T15:43:24.823Z,26.40
2022-10-18T15:45:58.818Z,24.73
2022-10-18T15:48:35.929Z,24.33
2022-10-18T15:51:05.584Z,25.88
2022-10-18T15:53:45.532Z,26.33
2022-10-18T15:56:34.663Z,31.30
2022-10-18T15:59:04.775Z,28.63
2022-10-18T16:01:34.614Z,30.70
2022-10-18T16:06:29.268Z,7.25
2022-10-18T16:08:56.057Z,7.70
2022-10-18T16:11:26.083Z,17.67
2022-10-18T16:13:56.449Z,8.43
2022-10-18T16:16:28.921Z,8.50
2022-10-18T16:18:57.016Z,7.15
2022-10-18T16:21:27.686Z,73.10
2022-10-18T16:23:54.889Z,36.28
2022-10-18T16:26:22.424Z,7.30
2022-10-18T16:28:50.079Z,8.55
2022-10-18T16:31:19.472Z,57.80
2022-10-18T16:33:47.140Z,41.95
2022-10-18T16:36:19.295Z,40.22
2022-10-18T16:38:46.516Z,35.75
2022-10-18T16:41:16.346Z,32.42
2022-10-18T16:43:48.124Z,30.70
2022-10-18T16:46:18.022Z,5.43
2022-10-18T16:51:12.358Z,8.45
2022-10-18T16:53:39.577Z,8.63
2022-10-18T16:56:13.703Z,7.43
2022-10-18T16:58:40.543Z,6.57
2022-10-18T17:01:09.045Z,7.13
2022-10-18T17:03:36.222Z,3.90
2022-10-18T17:06:03.238Z,10.23
2022-10-18T17:08:30.083Z,6.95
2022-10-18T17:11:00.088Z,6.13
2022-10-18T17:13:27.135Z,4.32
2022-10-18T17:15:54.086Z,12.73
2022-10-18T17:18:26.527Z,7.15
2022-10-18T17:20:54.064Z,12.75
2022-10-18T17:23:20.792Z,7.68
2022-10-18T17:25:59.127Z,14.70
2022-10-18T17:28:35.447Z,23.50
2022-10-18T17:31:02.212Z,18.92
2022-10-18T17:33:28.893Z,17.13
2022-10-18T17:35:55.649Z,18.42
2022-10-18T17:38:22.335Z,19.38
2022-10-18T17:40:49.073Z,22.42
2022-10-18T17:43:15.867Z,17.98
2022-10-18T17:45:53.636Z,19.10
2022-10-18T17:48:20.804Z,15.93
2022-10-18T17:50:47.501Z,33.40
2022-10-18T17:53:14.415Z,18.50
2022-10-18T17:55:41.324Z,19.65
2022-10-18T17:58:08.083Z,16.45
2022-10-18T18:00:34.826Z,16.50
2022-10-18T18:03:02.085Z,18.38
2022-10-18T18:05:33.969Z,17.10
2022-10-18T18:08:03.867Z,17.63
2022-10-18T18:10:33.642Z,17.63
2022-10-18T18:13:01.066Z,17.83
2022-10-18T18:15:28.495Z,19.77
2022-10-18T18:17:57.397Z,15.13
2022-10-18T18:20:25.253Z,16.70
2022-10-18T18:22:52.281Z,19.90
2022-10-18T18:25:19.028Z,15.07
2022-10-18T18:27:45.763Z,21.30
2022-10-18T18:30:12.618Z,19.38
2022-10-18T18:32:39.474Z,15.75
2022-10-18T18:35:06.430Z,25.92
2022-10-18T18:37:33.148Z,17.80
2022-10-18T18:39:59.936Z,22.40
2022-10-18T18:42:26.650Z,18.15
2022-10-18T18:44:53.369Z,16.88
2022-10-18T18:47:22.052Z,18.48
2022-10-18T18:49:49.365Z,19.27
2022-10-18T18:52:16.100Z,17.23
2022-10-18T18:54:42.937Z,17.48
2022-10-18T18:57:09.682Z,27.42
2022-10-18T18:59:36.376Z,15.25
2022-10-18T19:02:03.174Z,20.02
2022-10-18T19:04:30.009Z,17.98
2022-10-18T19:06:56.712Z,15.82
2022-10-18T19:09:24.116Z,15.93
2022-10-18T19:11:53.414Z,16.80
2022-10-18T19:16:54.573Z,16.75
2022-10-18T19:19:24.300Z,26.98
2022-10-18T19:21:54.290Z,29.92
2022-10-18T19:24:22.021Z,34.55
2022-10-18T19:26:51.682Z,30.23
2022-10-18T19:29:23.417Z,26.65
2022-10-18T19:31:52.065Z,26.00
2022-10-18T19:34:21.448Z,24.58
2022-10-18T19:36:49.164Z,21.45
2022-10-18T19:39:21.909Z,18.58
2022-10-18T19:41:51.156Z,20.05
2022-10-18T19:44:19.530Z,17.65
2022-10-18T19:46:47.391Z,17.55
2022-10-18T19:49:14.512Z,15.27
2022-10-18T19:51:41.744Z,16.00
2022-10-18T19:54:09.692Z,15.05
2022-10-18T19:56:36.564Z,14.75
2022-10-18T19:59:04.882Z,15.85
2022-10-18T20:01:31.807Z,14.68
2022-10-18T20:03:59.187Z,15.23
2022-10-18T20:06:26.370Z,13.50
2022-10-18T20:08:54.184Z,14.18
2022-10-18T20:11:24.341Z,14.73
2022-10-18T20:13:51.980Z,18.67
2022-10-18T20:16:25.451Z,15.32
2022-10-18T20:19:01.905Z,14.63
2022-10-18T20:21:32.740Z,16.75
2022-10-18T20:23:59.560Z,16.35
2022-10-18T20:26:26.471Z,15.05
2022-10-18T20:28:59.518Z,14.00
2022-10-18T20:31:29.783Z,12.65
2022-10-18T20:34:01.176Z,13.55
2022-10-18T20:36:30.533Z,13.23
2022-10-18T20:38:58.712Z,22.90
2022-10-18T20:41:26.903Z,12.88
2022-10-18T20:43:55.563Z,16.23
2022-10-18T20:46:23.348Z,16.58
2022-10-18T20:48:54.116Z,12.80
2022-10-18T20:51:22.247Z,15.27
2022-10-18T20:53:49.756Z,15.40
2022-10-18T20:56:22.664Z,13.25
2022-10-18T20:58:51.493Z,14.05
2022-10-18T21:01:23.666Z,13.52
2022-10-18T21:03:52.765Z,11.32
2022-10-18T21:06:22.866Z,11.38
2022-10-18T21:08:58.087Z,12.35
2022-10-18T21:11:26.057Z,13.95
2022-10-18T21:13:59.176Z,12.60
2022-10-18T21:16:26.557Z,12.13
2022-10-18T21:18:53.850Z,11.00
2022-10-18T21:21:23.296Z,18.10
2022-10-18T21:23:51.127Z,13.43
2022-10-18T21:26:23.233Z,16.67
2022-10-18T21:28:52.182Z,12.15
2022-10-18T21:31:24.544Z,11.90
2022-10-18T21:33:56.611Z,11.52
2022-10-18T21:36:24.192Z,12.55
2022-10-18T21:38:51.475Z,10.68
2022-10-18T21:41:20.028Z,13.25
2022-10-18T21:43:55.908Z,11.50
2022-10-18T21:46:27.011Z,14.18
2022-10-18T21:48:55.467Z,10.88
2022-10-18T21:51:24.479Z,13.57
2022-10-18T21:53:53.599Z,16.00
2022-10-18T21:56:28.595Z,11.98
2022-10-18T21:58:56.188Z,13.30
2022-10-18T22:01:24.466Z,11.57
2022-10-18T22:03:53.022Z,10.68
2022-10-18T22:06:21.361Z,12.70
2022-10-18T22:08:56.367Z,11.65
2022-10-18T22:11:27.076Z,9.15
2022-10-18T22:13:54.227Z,10.25
2022-10-18T22:16:21.733Z,11.60
2022-10-18T22:18:49.872Z,10.75
2022-10-18T22:21:19.153Z,10.82
2022-10-18T22:23:48.880Z,12.05
2022-10-18T22:26:27.621Z,10.93
2022-10-18T22:29:02.383Z,10.55
2022-10-18T22:31:32.622Z,10.05
2022-10-18T22:34:01.754Z,13.35
2022-10-18T22:36:28.917Z,8.75
2022-10-18T22:38:55.983Z,9.40
2022-10-18T22:41:22.889Z,9.57
2022-10-18T22:43:53.555Z,9.52
2022-10-18T22:46:21.003Z,12.15
2022-10-18T22:48:48.623Z,8.82
2022-10-18T22:51:16.079Z,8.93
2022-10-18T22:53:42.859Z,11.70
2022-10-18T22:56:13.120Z,9.43
2022-10-18T22:58:40.051Z,9.82
2022-10-18T23:01:09.832Z,9.00
2022-10-18T23:03:37.381Z,8.93
2022-10-18T23:06:06.025Z,9.70
2022-10-18T23:08:33.408Z,9.90
2022-10-18T23:11:00.374Z,9.00
2022-10-18T23:13:28.400Z,11.80
2022-10-18T23:16:04.361Z,11.63
2022-10-18T23:18:32.592Z,9.98
2022-10-18T23:21:13.208Z,9.85
2022-10-18T23:23:42.532Z,9.00
2022-10-18T23:26:14.591Z,9.65
2022-10-18T23:28:44.192Z,10.05
2022-10-18T23:31:18.083Z,9.18
2022-10-18T23:33:46.825Z,8.60
2022-10-18T23:36:13.909Z,9.75
2022-10-18T23:38:41.361Z,10.27
2022-10-18T23:41:10.094Z,9.02
2022-10-18T23:43:36.792Z,9.65
2022-10-18T23:46:04.343Z,12.27
2022-10-18T23:48:31.339Z,9.75
2022-10-18T23:50:58.258Z,9.18
2022-10-18T23:53:25.124Z,9.93
2022-10-18T23:55:57.259Z,9.93
2022-10-18T23:58:25.131Z,7.90
